Whites Store, New York
Current Conditions -  °F | °C
As of 1:53 AM on Monday 24 Nov 2014 (Local Time) from KBGM Reporting Station
Light Rain Light Rain  
Wind Chill: 41°   Ceiling: 1300
Heat Index: 47°   Visibility: 7mi
Dew Point: 44°   Wind: 14mph
Humidity: 90%   Direction: 150°SSE
Pressure: 29.72"   Gusts: 28mph
Location:  42.5358°N, 75.3475°W
Report Text: KBGM 240653Z AUTO 15012G24KT 7SM -RA OVC013 08/07 A2972 RMK AO2 SLP071 P0003 T00830067
Loading
Personal Weather Stations






























Interactive Weather Map New forecast layout! Learn more

10-Day Weather Forecast

Advertisements
Track Severe Weather on mobile